sensor_id;sensor_type;location;lat;lon;timestamp;P1;durP1;ratioP1;P2;durP2;ratioP2
23250;SDS011;11794;49.730;10.088;2023-04-30T00:01:38;3.00;;;1.00;;
23250;SDS011;11794;49.730;10.088;2023-04-30T00:04:03;1.10;;;0.30;;
23250;SDS011;11794;49.730;10.088;2023-04-30T00:06:30;2.35;;;0.88;;
23250;SDS011;11794;49.730;10.088;2023-04-30T00:08:55;1.73;;;0.63;;
23250;SDS011;11794;49.730;10.088;2023-04-30T00:11:21;1.50;;;0.70;;
23250;SDS011;11794;49.730;10.088;2023-04-30T00:13:48;2.75;;;0.70;;
23250;SDS011;11794;49.730;10.088;2023-04-30T00:16:13;1.60;;;0.40;;
23250;SDS011;11794;49.730;10.088;2023-04-30T00:18:39;1.40;;;0.40;;
23250;SDS011;11794;49.730;10.088;2023-04-30T00:21:04;2.43;;;0.70;;
23250;SDS011;11794;49.730;10.088;2023-04-30T00:23:30;1.73;;;0.60;;
23250;SDS011;11794;49.730;10.088;2023-04-30T00:25:55;1.10;;;0.30;;
23250;SDS011;11794;49.730;10.088;2023-04-30T00:28:21;2.10;;;0.60;;
23250;SDS011;11794;49.730;10.088;2023-04-30T00:30:46;1.80;;;0.93;;
23250;SDS011;11794;49.730;10.088;2023-04-30T00:33:12;2.60;;;0.57;;
23250;SDS011;11794;49.730;10.088;2023-04-30T00:35:37;1.57;;;0.67;;
23250;SDS011;11794;49.730;10.088;2023-04-30T00:38:03;2.53;;;0.50;;
23250;SDS011;11794;49.730;10.088;2023-04-30T00:40:28;3.37;;;0.90;;
23250;SDS011;11794;49.730;10.088;2023-04-30T00:42:54;2.40;;;0.45;;
23250;SDS011;11794;49.730;10.088;2023-04-30T00:45:20;2.27;;;0.70;;
23250;SDS011;11794;49.730;10.088;2023-04-30T00:47:47;2.75;;;1.00;;
23250;SDS011;11794;49.730;10.088;2023-04-30T00:50:13;2.67;;;1.10;;
23250;SDS011;11794;49.730;10.088;2023-04-30T00:52:40;3.20;;;1.23;;
23250;SDS011;11794;49.730;10.088;2023-04-30T00:55:06;2.10;;;0.60;;
23250;SDS011;11794;49.730;10.088;2023-04-30T00:57:34;3.20;;;1.00;;
23250;SDS011;11794;49.730;10.088;2023-04-30T01:00:00;2.30;;;0.60;;
23250;SDS011;11794;49.730;10.088;2023-04-30T01:02:26;2.28;;;1.00;;
23250;SDS011;11794;49.730;10.088;2023-04-30T01:04:52;5.68;;;1.35;;
23250;SDS011;11794;49.730;10.088;2023-04-30T01:07:19;3.60;;;1.05;;
23250;SDS011;11794;49.730;10.088;2023-04-30T01:09:44;2.30;;;0.70;;
23250;SDS011;11794;49.730;10.088;2023-04-30T01:17:54;2.40;;;0.60;;
23250;SDS011;11794;49.730;10.088;2023-04-30T01:20:25;2.33;;;0.90;;
23250;SDS011;11794;49.730;10.088;2023-04-30T01:25:59;2.55;;;0.55;;
23250;SDS011;11794;49.730;10.088;2023-04-30T01:28:35;1.90;;;0.77;;
23250;SDS011;11794;49.730;10.088;2023-04-30T01:31:02;3.70;;;0.77;;
23250;SDS011;11794;49.730;10.088;2023-04-30T01:33:27;2.87;;;1.03;;
23250;SDS011;11794;49.730;10.088;2023-04-30T01:36:06;2.83;;;1.30;;
23250;SDS011;11794;49.730;10.088;2023-04-30T01:44:05;2.47;;;1.00;;
23250;SDS011;11794;49.730;10.088;2023-04-30T01:46:34;2.90;;;1.23;;
23250;SDS011;11794;49.730;10.088;2023-04-30T01:51:48;1.83;;;0.40;;
23250;SDS011;11794;49.730;10.088;2023-04-30T01:54:27;2.77;;;0.80;;
23250;SDS011;11794;49.730;10.088;2023-04-30T01:57:05;2.67;;;0.95;;
23250;SDS011;11794;49.730;10.088;2023-04-30T01:59:32;3.97;;;1.20;;
23250;SDS011;11794;49.730;10.088;2023-04-30T02:02:00;3.75;;;0.63;;
23250;SDS011;11794;49.730;10.088;2023-04-30T02:04:26;3.22;;;0.88;;
23250;SDS011;11794;49.730;10.088;2023-04-30T02:06:51;1.80;;;0.50;;
23250;SDS011;11794;49.730;10.088;2023-04-30T02:09:17;2.20;;;0.93;;
23250;SDS011;11794;49.730;10.088;2023-04-30T02:11:43;3.47;;;0.77;;
23250;SDS011;11794;49.730;10.088;2023-04-30T02:14:08;4.18;;;1.23;;
23250;SDS011;11794;49.730;10.088;2023-04-30T02:16:34;3.17;;;1.20;;
23250;SDS011;11794;49.730;10.088;2023-04-30T02:19:00;2.72;;;0.77;;
23250;SDS011;11794;49.730;10.088;2023-04-30T02:21:26;3.03;;;0.80;;
23250;SDS011;11794;49.730;10.088;2023-04-30T02:23:52;3.47;;;0.90;;
23250;SDS011;11794;49.730;10.088;2023-04-30T02:26:18;1.73;;;0.52;;
23250;SDS011;11794;49.730;10.088;2023-04-30T02:28:43;3.47;;;1.15;;
23250;SDS011;11794;49.730;10.088;2023-04-30T02:31:09;2.93;;;1.17;;
23250;SDS011;11794;49.730;10.088;2023-04-30T02:33:35;3.75;;;1.00;;
23250;SDS011;11794;49.730;10.088;2023-04-30T02:36:00;2.23;;;0.70;;
23250;SDS011;11794;49.730;10.088;2023-04-30T02:38:26;1.92;;;0.68;;
23250;SDS011;11794;49.730;10.088;2023-04-30T02:40:51;2.83;;;1.13;;
23250;SDS011;11794;49.730;10.088;2023-04-30T02:43:17;2.93;;;0.73;;
23250;SDS011;11794;49.730;10.088;2023-04-30T02:45:42;2.55;;;0.88;;
23250;SDS011;11794;49.730;10.088;2023-04-30T02:48:08;2.37;;;0.90;;
23250;SDS011;11794;49.730;10.088;2023-04-30T02:50:33;3.55;;;1.05;;
23250;SDS011;11794;49.730;10.088;2023-04-30T02:52:59;1.43;;;0.50;;
23250;SDS011;11794;49.730;10.088;2023-04-30T02:55:25;3.57;;;1.43;;
23250;SDS011;11794;49.730;10.088;2023-04-30T02:57:50;2.03;;;0.63;;
23250;SDS011;11794;49.730;10.088;2023-04-30T03:00:16;2.20;;;0.50;;
23250;SDS011;11794;49.730;10.088;2023-04-30T03:02:41;1.40;;;0.40;;
23250;SDS011;11794;49.730;10.088;2023-04-30T03:05:07;3.47;;;1.07;;
23250;SDS011;11794;49.730;10.088;2023-04-30T03:07:33;1.25;;;0.28;;
23250;SDS011;11794;49.730;10.088;2023-04-30T03:09:58;1.77;;;0.70;;
23250;SDS011;11794;49.730;10.088;2023-04-30T03:12:24;3.50;;;1.07;;
23250;SDS011;11794;49.730;10.088;2023-04-30T03:14:50;2.22;;;0.70;;
23250;SDS011;11794;49.730;10.088;2023-04-30T03:17:16;3.20;;;1.10;;
23250;SDS011;11794;49.730;10.088;2023-04-30T03:19:41;1.90;;;0.70;;
23250;SDS011;11794;49.730;10.088;2023-04-30T03:22:07;1.77;;;0.73;;
23250;SDS011;11794;49.730;10.088;2023-04-30T03:24:32;1.98;;;0.63;;
23250;SDS011;11794;49.730;10.088;2023-04-30T03:26:58;2.60;;;0.73;;
23250;SDS011;11794;49.730;10.088;2023-04-30T03:29:24;2.10;;;0.70;;
23250;SDS011;11794;49.730;10.088;2023-04-30T03:31:49;2.83;;;0.70;;
23250;SDS011;11794;49.730;10.088;2023-04-30T03:34:15;1.73;;;0.80;;
23250;SDS011;11794;49.730;10.088;2023-04-30T03:36:40;1.88;;;0.65;;
23250;SDS011;11794;49.730;10.088;2023-04-30T03:39:06;2.27;;;0.97;;
23250;SDS011;11794;49.730;10.088;2023-04-30T03:41:33;2.50;;;0.65;;
23250;SDS011;11794;49.730;10.088;2023-04-30T03:43:59;1.65;;;0.55;;
23250;SDS011;11794;49.730;10.088;2023-04-30T03:46:25;3.63;;;1.30;;
23250;SDS011;11794;49.730;10.088;2023-04-30T03:48:50;2.17;;;0.90;;
23250;SDS011;11794;49.730;10.088;2023-04-30T03:51:16;2.65;;;0.73;;
23250;SDS011;11794;49.730;10.088;2023-04-30T03:53:44;1.83;;;0.60;;
23250;SDS011;11794;49.730;10.088;2023-04-30T03:56:11;2.10;;;0.37;;
23250;SDS011;11794;49.730;10.088;2023-04-30T03:58:37;3.67;;;0.73;;
23250;SDS011;11794;49.730;10.088;2023-04-30T04:01:03;2.80;;;1.30;;
23250;SDS011;11794;49.730;10.088;2023-04-30T04:03:28;4.47;;;1.33;;
23250;SDS011;11794;49.730;10.088;2023-04-30T04:05:54;2.58;;;0.90;;
23250;SDS011;11794;49.730;10.088;2023-04-30T04:08:20;3.27;;;0.97;;
23250;SDS011;11794;49.730;10.088;2023-04-30T04:10:45;2.25;;;1.10;;
23250;SDS011;11794;49.730;10.088;2023-04-30T04:13:11;1.43;;;0.50;;
23250;SDS011;11794;49.730;10.088;2023-04-30T04:15:36;2.60;;;0.80;;
23250;SDS011;11794;49.730;10.088;2023-04-30T04:18:02;4.43;;;0.85;;
23250;SDS011;11794;49.730;10.088;2023-04-30T04:20:27;2.80;;;0.77;;
23250;SDS011;11794;49.730;10.088;2023-04-30T04:22:54;4.03;;;1.17;;
23250;SDS011;11794;49.730;10.088;2023-04-30T04:25:20;3.67;;;1.25;;
23250;SDS011;11794;49.730;10.088;2023-04-30T04:27:49;1.95;;;0.73;;
23250;SDS011;11794;49.730;10.088;2023-04-30T04:30:16;1.67;;;0.45;;
23250;SDS011;11794;49.730;10.088;2023-04-30T04:32:41;2.17;;;0.60;;
23250;SDS011;11794;49.730;10.088;2023-04-30T04:35:13;2.65;;;0.95;;
23250;SDS011;11794;49.730;10.088;2023-04-30T04:37:39;3.08;;;1.33;;
23250;SDS011;11794;49.730;10.088;2023-04-30T04:40:06;3.23;;;0.93;;
23250;SDS011;11794;49.730;10.088;2023-04-30T04:42:32;2.20;;;0.57;;
23250;SDS011;11794;49.730;10.088;2023-04-30T04:44:58;2.25;;;0.80;;
23250;SDS011;11794;49.730;10.088;2023-04-30T04:47:23;5.33;;;0.77;;
23250;SDS011;11794;49.730;10.088;2023-04-30T04:49:49;2.70;;;0.70;;
23250;SDS011;11794;49.730;10.088;2023-04-30T04:52:15;2.87;;;0.80;;
23250;SDS011;11794;49.730;10.088;2023-04-30T04:54:40;1.45;;;0.40;;
23250;SDS011;11794;49.730;10.088;2023-04-30T04:57:06;1.13;;;0.47;;
23250;SDS011;11794;49.730;10.088;2023-04-30T04:59:31;3.27;;;1.07;;
23250;SDS011;11794;49.730;10.088;2023-04-30T05:01:57;1.60;;;0.35;;
23250;SDS011;11794;49.730;10.088;2023-04-30T05:04:22;2.20;;;0.80;;
23250;SDS011;11794;49.730;10.088;2023-04-30T05:06:48;4.50;;;1.47;;
23250;SDS011;11794;49.730;10.088;2023-04-30T05:09:13;2.08;;;0.38;;
23250;SDS011;11794;49.730;10.088;2023-04-30T05:11:39;1.40;;;0.50;;
23250;SDS011;11794;49.730;10.088;2023-04-30T05:14:05;2.55;;;0.45;;
23250;SDS011;11794;49.730;10.088;2023-04-30T05:16:31;1.83;;;0.38;;
23250;SDS011;11794;49.730;10.088;2023-04-30T05:18:57;1.30;;;0.47;;
23250;SDS011;11794;49.730;10.088;2023-04-30T05:21:22;1.53;;;0.37;;
23250;SDS011;11794;49.730;10.088;2023-04-30T05:23:50;5.13;;;0.90;;
23250;SDS011;11794;49.730;10.088;2023-04-30T05:26:15;2.03;;;0.60;;
23250;SDS011;11794;49.730;10.088;2023-04-30T05:28:41;5.40;;;1.00;;
23250;SDS011;11794;49.730;10.088;2023-04-30T05:31:06;2.57;;;0.63;;
23250;SDS011;11794;49.730;10.088;2023-04-30T05:33:32;1.15;;;0.40;;
23250;SDS011;11794;49.730;10.088;2023-04-30T05:35:57;2.23;;;0.80;;
23250;SDS011;11794;49.730;10.088;2023-04-30T05:38:23;2.03;;;0.77;;
23250;SDS011;11794;49.730;10.088;2023-04-30T05:40:49;2.30;;;1.03;;
23250;SDS011;11794;49.730;10.088;2023-04-30T05:43:14;1.13;;;0.50;;
23250;SDS011;11794;49.730;10.088;2023-04-30T05:45:40;3.13;;;0.77;;
23250;SDS011;11794;49.730;10.088;2023-04-30T05:48:05;2.33;;;0.90;;
23250;SDS011;11794;49.730;10.088;2023-04-30T05:50:31;1.60;;;0.50;;
23250;SDS011;11794;49.730;10.088;2023-04-30T05:52:56;1.97;;;0.60;;
23250;SDS011;11794;49.730;10.088;2023-04-30T05:55:22;2.63;;;0.60;;
23250;SDS011;11794;49.730;10.088;2023-04-30T05:57:47;2.57;;;0.60;;
23250;SDS011;11794;49.730;10.088;2023-04-30T06:00:13;2.17;;;0.83;;
23250;SDS011;11794;49.730;10.088;2023-04-30T06:02:39;1.17;;;0.30;;
23250;SDS011;11794;49.730;10.088;2023-04-30T06:05:06;3.28;;;0.63;;
23250;SDS011;11794;49.730;10.088;2023-04-30T06:07:32;2.33;;;0.70;;
23250;SDS011;11794;49.730;10.088;2023-04-30T06:09:58;3.20;;;0.93;;
23250;SDS011;11794;49.730;10.088;2023-04-30T06:12:23;3.17;;;1.03;;
23250;SDS011;11794;49.730;10.088;2023-04-30T06:14:50;2.33;;;0.70;;
23250;SDS011;11794;49.730;10.088;2023-04-30T06:17:16;3.08;;;1.00;;
23250;SDS011;11794;49.730;10.088;2023-04-30T06:19:41;1.90;;;0.60;;
23250;SDS011;11794;49.730;10.088;2023-04-30T06:22:06;3.30;;;0.77;;
23250;SDS011;11794;49.730;10.088;2023-04-30T06:24:32;2.42;;;0.75;;
23250;SDS011;11794;49.730;10.088;2023-04-30T06:26:58;2.83;;;0.77;;
23250;SDS011;11794;49.730;10.088;2023-04-30T06:29:23;4.22;;;1.13;;
23250;SDS011;11794;49.730;10.088;2023-04-30T06:31:49;3.10;;;1.27;;
23250;SDS011;11794;49.730;10.088;2023-04-30T06:34:15;2.03;;;0.85;;
23250;SDS011;11794;49.730;10.088;2023-04-30T06:36:41;3.87;;;0.87;;
23250;SDS011;11794;49.730;10.088;2023-04-30T06:39:06;2.17;;;1.15;;
23250;SDS011;11794;49.730;10.088;2023-04-30T06:41:32;4.00;;;1.30;;
23250;SDS011;11794;49.730;10.088;2023-04-30T06:43:57;4.20;;;1.63;;
23250;SDS011;11794;49.730;10.088;2023-04-30T06:46:23;3.23;;;0.67;;
23250;SDS011;11794;49.730;10.088;2023-04-30T06:48:48;4.50;;;1.20;;
23250;SDS011;11794;49.730;10.088;2023-04-30T06:51:14;3.25;;;1.13;;
23250;SDS011;11794;49.730;10.088;2023-04-30T06:53:39;4.27;;;1.17;;
23250;SDS011;11794;49.730;10.088;2023-04-30T06:56:05;3.08;;;1.10;;
23250;SDS011;11794;49.730;10.088;2023-04-30T06:58:31;4.73;;;1.93;;
23250;SDS011;11794;49.730;10.088;2023-04-30T07:00:56;3.28;;;1.17;;
23250;SDS011;11794;49.730;10.088;2023-04-30T07:03:22;2.37;;;0.80;;
23250;SDS011;11794;49.730;10.088;2023-04-30T07:05:47;4.23;;;1.30;;
23250;SDS011;11794;49.730;10.088;2023-04-30T07:08:13;3.53;;;1.20;;
23250;SDS011;11794;49.730;10.088;2023-04-30T07:10:39;5.07;;;2.20;;
23250;SDS011;11794;49.730;10.088;2023-04-30T07:13:05;2.63;;;0.95;;
23250;SDS011;11794;49.730;10.088;2023-04-30T07:15:32;4.45;;;1.38;;
23250;SDS011;11794;49.730;10.088;2023-04-30T07:17:57;2.97;;;1.17;;
23250;SDS011;11794;49.730;10.088;2023-04-30T07:20:23;2.03;;;0.77;;
23250;SDS011;11794;49.730;10.088;2023-04-30T07:22:49;3.50;;;1.17;;
23250;SDS011;11794;49.730;10.088;2023-04-30T07:25:14;3.72;;;1.30;;
23250;SDS011;11794;49.730;10.088;2023-04-30T07:27:40;3.53;;;1.20;;
23250;SDS011;11794;49.730;10.088;2023-04-30T07:30:06;4.95;;;1.13;;
23250;SDS011;11794;49.730;10.088;2023-04-30T07:32:34;5.85;;;1.70;;
23250;SDS011;11794;49.730;10.088;2023-04-30T07:34:59;3.22;;;1.08;;
23250;SDS011;11794;49.730;10.088;2023-04-30T07:37:25;4.53;;;1.23;;
23250;SDS011;11794;49.730;10.088;2023-04-30T07:39:51;3.57;;;1.30;;
23250;SDS011;11794;49.730;10.088;2023-04-30T07:42:16;3.67;;;1.38;;
23250;SDS011;11794;49.730;10.088;2023-04-30T07:44:41;2.80;;;0.77;;
23250;SDS011;11794;49.730;10.088;2023-04-30T07:47:07;4.32;;;1.27;;
23250;SDS011;11794;49.730;10.088;2023-04-30T07:49:33;3.80;;;0.93;;
23250;SDS011;11794;49.730;10.088;2023-04-30T07:51:59;3.50;;;1.00;;
23250;SDS011;11794;49.730;10.088;2023-04-30T07:54:25;4.75;;;0.93;;
23250;SDS011;11794;49.730;10.088;2023-04-30T07:56:51;2.92;;;1.10;;
23250;SDS011;11794;49.730;10.088;2023-04-30T07:59:17;3.57;;;0.87;;
23250;SDS011;11794;49.730;10.088;2023-04-30T08:01:43;4.13;;;1.45;;
23250;SDS011;11794;49.730;10.088;2023-04-30T08:04:08;4.10;;;1.42;;
23250;SDS011;11794;49.730;10.088;2023-04-30T08:06:34;4.37;;;1.27;;
23250;SDS011;11794;49.730;10.088;2023-04-30T08:08:59;4.18;;;1.30;;
23250;SDS011;11794;49.730;10.088;2023-04-30T08:11:25;4.17;;;1.13;;
23250;SDS011;11794;49.730;10.088;2023-04-30T08:13:51;3.78;;;1.10;;
23250;SDS011;11794;49.730;10.088;2023-04-30T08:16:17;5.07;;;1.57;;
23250;SDS011;11794;49.730;10.088;2023-04-30T08:18:42;3.83;;;1.33;;
23250;SDS011;11794;49.730;10.088;2023-04-30T08:21:10;3.65;;;1.30;;
23250;SDS011;11794;49.730;10.088;2023-04-30T08:23:36;4.10;;;1.50;;
23250;SDS011;11794;49.730;10.088;2023-04-30T08:26:02;4.63;;;1.43;;
23250;SDS011;11794;49.730;10.088;2023-04-30T08:28:28;3.80;;;0.83;;
23250;SDS011;11794;49.730;10.088;2023-04-30T08:30:53;4.00;;;1.05;;
23250;SDS011;11794;49.730;10.088;2023-04-30T08:33:19;3.20;;;0.73;;
23250;SDS011;11794;49.730;10.088;2023-04-30T08:35:44;5.88;;;0.90;;
23250;SDS011;11794;49.730;10.088;2023-04-30T08:38:10;3.20;;;0.93;;
23250;SDS011;11794;49.730;10.088;2023-04-30T08:40:35;2.67;;;0.80;;
23250;SDS011;11794;49.730;10.088;2023-04-30T08:43:05;3.73;;;1.10;;
23250;SDS011;11794;49.730;10.088;2023-04-30T08:45:32;5.03;;;1.10;;
23250;SDS011;11794;49.730;10.088;2023-04-30T08:47:58;3.78;;;1.38;;
23250;SDS011;11794;49.730;10.088;2023-04-30T08:50:25;3.10;;;0.77;;
23250;SDS011;11794;49.730;10.088;2023-04-30T08:52:51;2.43;;;0.77;;
23250;SDS011;11794;49.730;10.088;2023-04-30T08:55:17;3.03;;;0.80;;
23250;SDS011;11794;49.730;10.088;2023-04-30T08:57:42;2.73;;;0.90;;
23250;SDS011;11794;49.730;10.088;2023-04-30T09:00:08;3.10;;;0.85;;
23250;SDS011;11794;49.730;10.088;2023-04-30T09:02:34;3.35;;;0.75;;
23250;SDS011;11794;49.730;10.088;2023-04-30T09:05:09;2.23;;;0.80;;
23250;SDS011;11794;49.730;10.088;2023-04-30T09:07:37;3.60;;;1.17;;
23250;SDS011;11794;49.730;10.088;2023-04-30T09:10:13;2.55;;;0.77;;
23250;SDS011;11794;49.730;10.088;2023-04-30T09:12:40;3.38;;;0.90;;
23250;SDS011;11794;49.730;10.088;2023-04-30T09:15:09;3.03;;;0.80;;
23250;SDS011;11794;49.730;10.088;2023-04-30T09:17:36;4.35;;;0.52;;
23250;SDS011;11794;49.730;10.088;2023-04-30T09:20:11;3.25;;;1.10;;
23250;SDS011;11794;49.730;10.088;2023-04-30T09:22:38;3.33;;;1.08;;
23250;SDS011;11794;49.730;10.088;2023-04-30T09:25:05;3.22;;;0.75;;
23250;SDS011;11794;49.730;10.088;2023-04-30T09:27:32;2.20;;;0.60;;
23250;SDS011;11794;49.730;10.088;2023-04-30T09:29:58;2.70;;;0.60;;
23250;SDS011;11794;49.730;10.088;2023-04-30T09:32:23;2.17;;;0.55;;
23250;SDS011;11794;49.730;10.088;2023-04-30T09:34:49;1.97;;;0.50;;
23250;SDS011;11794;49.730;10.088;2023-04-30T09:37:15;2.58;;;0.57;;
23250;SDS011;11794;49.730;10.088;2023-04-30T09:39:50;1.63;;;0.50;;
23250;SDS011;11794;49.730;10.088;2023-04-30T09:42:18;1.60;;;0.40;;
23250;SDS011;11794;49.730;10.088;2023-04-30T09:44:44;1.92;;;0.35;;
23250;SDS011;11794;49.730;10.088;2023-04-30T09:47:17;1.48;;;0.47;;
23250;SDS011;11794;49.730;10.088;2023-04-30T09:49:46;1.88;;;0.40;;
23250;SDS011;11794;49.730;10.088;2023-04-30T09:52:15;2.40;;;0.60;;
23250;SDS011;11794;49.730;10.088;2023-04-30T09:54:42;1.52;;;0.40;;
23250;SDS011;11794;49.730;10.088;2023-04-30T09:57:09;2.13;;;0.47;;
23250;SDS011;11794;49.730;10.088;2023-04-30T09:59:36;1.90;;;0.60;;
23250;SDS011;11794;49.730;10.088;2023-04-30T10:02:05;2.17;;;0.83;;
23250;SDS011;11794;49.730;10.088;2023-04-30T10:04:38;1.88;;;0.57;;
23250;SDS011;11794;49.730;10.088;2023-04-30T10:07:09;1.33;;;0.38;;
23250;SDS011;11794;49.730;10.088;2023-04-30T10:09:47;2.65;;;0.60;;
23250;SDS011;11794;49.730;10.088;2023-04-30T10:12:21;2.13;;;0.57;;
23250;SDS011;11794;49.730;10.088;2023-04-30T10:14:52;1.83;;;0.65;;
23250;SDS011;11794;49.730;10.088;2023-04-30T10:17:22;1.70;;;0.40;;
23250;SDS011;11794;49.730;10.088;2023-04-30T10:19:52;1.67;;;0.40;;
23250;SDS011;11794;49.730;10.088;2023-04-30T10:22:21;2.15;;;0.75;;
23250;SDS011;11794;49.730;10.088;2023-04-30T10:24:47;1.60;;;0.30;;
23250;SDS011;11794;49.730;10.088;2023-04-30T10:27:13;1.80;;;0.60;;
23250;SDS011;11794;49.730;10.088;2023-04-30T10:29:38;1.50;;;0.47;;
23250;SDS011;11794;49.730;10.088;2023-04-30T10:32:04;1.73;;;0.33;;
23250;SDS011;11794;49.730;10.088;2023-04-30T10:34:41;1.80;;;0.50;;
23250;SDS011;11794;49.730;10.088;2023-04-30T10:37:33;1.83;;;0.47;;
23250;SDS011;11794;49.730;10.088;2023-04-30T10:40:04;1.63;;;0.55;;
23250;SDS011;11794;49.730;10.088;2023-04-30T10:42:33;2.03;;;0.57;;
23250;SDS011;11794;49.730;10.088;2023-04-30T10:45:00;2.22;;;0.35;;
23250;SDS011;11794;49.730;10.088;2023-04-30T10:47:27;2.60;;;0.77;;
23250;SDS011;11794;49.730;10.088;2023-04-30T10:50:04;1.77;;;0.50;;
23250;SDS011;11794;49.730;10.088;2023-04-30T10:52:32;1.83;;;0.47;;
23250;SDS011;11794;49.730;10.088;2023-04-30T10:54:58;2.15;;;0.50;;
23250;SDS011;11794;49.730;10.088;2023-04-30T10:57:28;1.83;;;0.43;;
23250;SDS011;11794;49.730;10.088;2023-04-30T11:02:41;2.20;;;0.53;;
23250;SDS011;11794;49.730;10.088;2023-04-30T11:05:09;3.07;;;0.63;;
23250;SDS011;11794;49.730;10.088;2023-04-30T11:07:48;3.30;;;0.63;;
23250;SDS011;11794;49.730;10.088;2023-04-30T11:10:15;1.88;;;0.45;;
23250;SDS011;11794;49.730;10.088;2023-04-30T11:12:47;2.70;;;0.60;;
23250;SDS011;11794;49.730;10.088;2023-04-30T11:15:16;1.80;;;0.50;;
23250;SDS011;11794;49.730;10.088;2023-04-30T11:17:43;1.30;;;0.38;;
23250;SDS011;11794;49.730;10.088;2023-04-30T11:20:14;2.17;;;0.60;;
23250;SDS011;11794;49.730;10.088;2023-04-30T11:22:44;2.20;;;0.57;;
23250;SDS011;11794;49.730;10.088;2023-04-30T11:25:17;1.53;;;0.33;;
23250;SDS011;11794;49.730;10.088;2023-04-30T11:27:43;1.27;;;0.40;;
23250;SDS011;11794;49.730;10.088;2023-04-30T11:30:13;1.08;;;0.30;;
23250;SDS011;11794;49.730;10.088;2023-04-30T11:32:42;1.80;;;0.50;;
23250;SDS011;11794;49.730;10.088;2023-04-30T11:35:10;1.77;;;0.50;;
23250;SDS011;11794;49.730;10.088;2023-04-30T11:37:36;1.90;;;0.40;;
23250;SDS011;11794;49.730;10.088;2023-04-30T11:40:04;1.55;;;0.40;;
23250;SDS011;11794;49.730;10.088;2023-04-30T11:42:38;2.00;;;0.60;;
23250;SDS011;11794;49.730;10.088;2023-04-30T11:45:06;1.67;;;0.40;;
23250;SDS011;11794;49.730;10.088;2023-04-30T11:47:40;1.35;;;0.30;;
23250;SDS011;11794;49.730;10.088;2023-04-30T11:50:08;1.88;;;0.50;;
23250;SDS011;11794;49.730;10.088;2023-04-30T11:52:35;1.52;;;0.50;;
23250;SDS011;11794;49.730;10.088;2023-04-30T11:55:15;1.27;;;0.40;;
23250;SDS011;11794;49.730;10.088;2023-04-30T11:57:42;2.93;;;0.50;;
23250;SDS011;11794;49.730;10.088;2023-04-30T12:00:10;2.03;;;0.50;;
23250;SDS011;11794;49.730;10.088;2023-04-30T12:02:40;1.42;;;0.47;;
23250;SDS011;11794;49.730;10.088;2023-04-30T12:05:14;1.05;;;0.30;;
23250;SDS011;11794;49.730;10.088;2023-04-30T12:07:44;1.80;;;0.47;;
23250;SDS011;11794;49.730;10.088;2023-04-30T12:10:20;1.58;;;0.38;;
23250;SDS011;11794;49.730;10.088;2023-04-30T12:12:47;0.80;;;0.30;;
23250;SDS011;11794;49.730;10.088;2023-04-30T12:15:14;1.73;;;0.43;;
23250;SDS011;11794;49.730;10.088;2023-04-30T12:17:41;1.50;;;0.43;;
23250;SDS011;11794;49.730;10.088;2023-04-30T12:20:08;1.20;;;0.33;;
23250;SDS011;11794;49.730;10.088;2023-04-30T12:22:34;1.53;;;0.40;;
23250;SDS011;11794;49.730;10.088;2023-04-30T12:25:04;1.30;;;0.40;;
23250;SDS011;11794;49.730;10.088;2023-04-30T12:27:37;1.58;;;0.40;;
23250;SDS011;11794;49.730;10.088;2023-04-30T12:30:04;2.22;;;0.60;;
23250;SDS011;11794;49.730;10.088;2023-04-30T12:32:37;1.67;;;0.40;;
23250;SDS011;11794;49.730;10.088;2023-04-30T12:35:04;2.15;;;0.70;;
23250;SDS011;11794;49.730;10.088;2023-04-30T12:37:30;1.55;;;0.45;;
23250;SDS011;11794;49.730;10.088;2023-04-30T12:39:56;1.87;;;0.50;;
23250;SDS011;11794;49.730;10.088;2023-04-30T12:42:21;2.03;;;0.50;;
23250;SDS011;11794;49.730;10.088;2023-04-30T12:44:47;1.85;;;0.40;;
23250;SDS011;11794;49.730;10.088;2023-04-30T12:47:14;2.37;;;0.40;;
23250;SDS011;11794;49.730;10.088;2023-04-30T12:49:40;0.85;;;0.30;;
23250;SDS011;11794;49.730;10.088;2023-04-30T12:52:09;1.15;;;0.40;;
23250;SDS011;11794;49.730;10.088;2023-04-30T12:54:36;1.00;;;0.30;;
23250;SDS011;11794;49.730;10.088;2023-04-30T12:57:03;2.13;;;0.43;;
23250;SDS011;11794;49.730;10.088;2023-04-30T12:59:35;1.60;;;0.50;;
23250;SDS011;11794;49.730;10.088;2023-04-30T13:02:21;2.20;;;0.60;;
23250;SDS011;11794;49.730;10.088;2023-04-30T13:04:48;1.23;;;0.40;;
23250;SDS011;11794;49.730;10.088;2023-04-30T13:07:14;1.40;;;0.40;;
23250;SDS011;11794;49.730;10.088;2023-04-30T13:09:39;1.60;;;0.40;;
23250;SDS011;11794;49.730;10.088;2023-04-30T13:12:05;1.07;;;0.30;;
23250;SDS011;11794;49.730;10.088;2023-04-30T13:14:31;1.00;;;0.28;;
23250;SDS011;11794;49.730;10.088;2023-04-30T13:16:56;1.17;;;0.30;;
23250;SDS011;11794;49.730;10.088;2023-04-30T13:19:22;1.25;;;0.38;;
23250;SDS011;11794;49.730;10.088;2023-04-30T13:21:48;1.30;;;0.40;;
23250;SDS011;11794;49.730;10.088;2023-04-30T13:24:13;0.85;;;0.20;;
23250;SDS011;11794;49.730;10.088;2023-04-30T13:26:40;1.57;;;0.20;;
23250;SDS011;11794;49.730;10.088;2023-04-30T13:29:05;1.20;;;0.30;;
23250;SDS011;11794;49.730;10.088;2023-04-30T13:31:31;1.05;;;0.30;;
23250;SDS011;11794;49.730;10.088;2023-04-30T13:33:56;1.13;;;0.30;;
23250;SDS011;11794;49.730;10.088;2023-04-30T13:36:22;0.67;;;0.20;;
23250;SDS011;11794;49.730;10.088;2023-04-30T13:38:48;1.20;;;0.20;;
23250;SDS011;11794;49.730;10.088;2023-04-30T13:41:13;0.57;;;0.20;;
23250;SDS011;11794;49.730;10.088;2023-04-30T13:43:39;2.00;;;0.30;;
23250;SDS011;11794;49.730;10.088;2023-04-30T13:46:08;0.88;;;0.30;;
23250;SDS011;11794;49.730;10.088;2023-04-30T13:48:34;0.80;;;0.28;;
23250;SDS011;11794;49.730;10.088;2023-04-30T13:50:59;0.70;;;0.20;;
23250;SDS011;11794;49.730;10.088;2023-04-30T13:53:25;0.90;;;0.27;;
23250;SDS011;11794;49.730;10.088;2023-04-30T13:55:51;1.67;;;0.40;;
23250;SDS011;11794;49.730;10.088;2023-04-30T13:58:17;1.30;;;0.30;;
23250;SDS011;11794;49.730;10.088;2023-04-30T14:00:43;1.20;;;0.38;;
23250;SDS011;11794;49.730;10.088;2023-04-30T14:03:08;1.57;;;0.30;;
23250;SDS011;11794;49.730;10.088;2023-04-30T14:05:35;2.40;;;0.30;;
23250;SDS011;11794;49.730;10.088;2023-04-30T14:08:00;0.85;;;0.20;;
23250;SDS011;11794;49.730;10.088;2023-04-30T14:10:26;1.13;;;0.30;;
23250;SDS011;11794;49.730;10.088;2023-04-30T14:12:51;1.17;;;0.30;;
23250;SDS011;11794;49.730;10.088;2023-04-30T14:15:17;1.02;;;0.20;;
23250;SDS011;11794;49.730;10.088;2023-04-30T14:17:45;1.20;;;0.30;;
23250;SDS011;11794;49.730;10.088;2023-04-30T14:20:10;1.10;;;0.40;;
23250;SDS011;11794;49.730;10.088;2023-04-30T14:22:36;1.20;;;0.38;;
23250;SDS011;11794;49.730;10.088;2023-04-30T14:25:02;0.85;;;0.20;;
23250;SDS011;11794;49.730;10.088;2023-04-30T14:27:28;0.60;;;0.20;;
23250;SDS011;11794;49.730;10.088;2023-04-30T14:29:54;1.10;;;0.30;;
23250;SDS011;11794;49.730;10.088;2023-04-30T14:32:20;1.77;;;0.33;;
23250;SDS011;11794;49.730;10.088;2023-04-30T14:34:48;1.10;;;0.30;;
23250;SDS011;11794;49.730;10.088;2023-04-30T14:37:14;1.93;;;0.30;;
23250;SDS011;11794;49.730;10.088;2023-04-30T14:39:40;1.35;;;0.38;;
23250;SDS011;11794;49.730;10.088;2023-04-30T14:42:06;1.48;;;0.40;;
23250;SDS011;11794;49.730;10.088;2023-04-30T14:44:32;1.05;;;0.25;;
23250;SDS011;11794;49.730;10.088;2023-04-30T14:46:58;1.60;;;0.40;;
23250;SDS011;11794;49.730;10.088;2023-04-30T14:49:25;1.10;;;0.40;;
23250;SDS011;11794;49.730;10.088;2023-04-30T14:51:51;1.30;;;0.50;;